Time;durP1;ratioP1;P1;durP2;ratioP2;P2;SDS_P1;SDS_P2;PMS_P1;PMS_P2;Temp;Humidity;BMP_temperature;BMP_pressure;BME280_temperature;BME280_humidity;BME280_pressure;Samples;Min_cycle;Max_cycle;Signal;HPM_P1;HPM_P2
2021/09/20 00:01:42;;;;;;;6.50;3.90;;;;;;;;;;4993199;28;20058;-59
2021/09/20 00:04:07;;;;;;;5.25;3.70;;;;;;;;;;4991403;28;20393;-59
2021/09/20 00:06:32;;;;;;;6.57;3.80;;;;;;;;;;4986361;28;20106;-59
2021/09/20 00:08:58;;;;;;;5.22;3.35;;;;;;;;;;4998692;28;20105;-59
2021/09/20 00:11:24;;;;;;;5.03;3.60;;;;;;;;;;4977125;28;20030;-59
2021/09/20 00:13:50;;;;;;;5.93;3.70;;;;;;;;;;5041875;28;20164;-59
2021/09/20 00:16:15;;;;;;;5.68;4.03;;;;;;;;;;5045797;28;20552;-60
2021/09/20 00:18:41;;;;;;;6.38;4.10;;;;;;;;;;5036932;28;20030;-59
2021/09/20 00:21:06;;;;;;;8.80;4.88;;;;;;;;;;4979302;28;20104;-59
2021/09/20 00:23:32;;;;;;;8.52;4.72;;;;;;;;;;5012820;28;20481;-59
2021/09/20 00:25:58;;;;;;;8.18;4.55;;;;;;;;;;5012948;28;20041;-59
2021/09/20 00:28:25;;;;;;;7.28;4.32;;;;;;;;;;4985326;28;20045;-59
2021/09/20 00:30:51;;;;;;;6.25;3.92;;;;;;;;;;4984847;28;20045;-59
2021/09/20 00:33:16;;;;;;;6.80;4.28;;;;;;;;;;4986967;28;20267;-59
2021/09/20 00:35:42;;;;;;;6.72;4.50;;;;;;;;;;4985741;28;20027;-59
2021/09/20 00:38:07;;;;;;;7.85;4.85;;;;;;;;;;4979760;28;20020;-59
2021/09/20 00:40:33;;;;;;;9.05;5.22;;;;;;;;;;4983996;28;20109;-59
2021/09/20 00:42:59;;;;;;;8.18;5.25;;;;;;;;;;4983857;28;20033;-59
2021/09/20 00:45:24;;;;;;;8.55;5.60;;;;;;;;;;4997081;28;20443;-59
2021/09/20 00:47:50;;;;;;;10.60;5.93;;;;;;;;;;4982081;28;20043;-59
2021/09/20 00:50:15;;;;;;;8.02;5.63;;;;;;;;;;4984611;28;20392;-59
2021/09/20 00:52:40;;;;;;;8.88;5.43;;;;;;;;;;5050047;28;20058;-59
2021/09/20 00:55:07;;;;;;;11.60;5.50;;;;;;;;;;4990090;28;20033;-59
2021/09/20 00:57:34;;;;;;;10.70;6.50;;;;;;;;;;4989286;28;20034;-60
2021/09/20 01:00:00;;;;;;;9.48;5.70;;;;;;;;;;4993096;28;20084;-59
2021/09/20 01:02:26;;;;;;;8.90;5.75;;;;;;;;;;4983715;28;20049;-59
2021/09/20 01:04:51;;;;;;;9.43;6.28;;;;;;;;;;4985975;28;20497;-59
2021/09/20 01:07:17;;;;;;;9.18;5.47;;;;;;;;;;4984338;28;20396;-59
2021/09/20 01:09:43;;;;;;;7.65;4.93;;;;;;;;;;4990790;28;20039;-59
2021/09/20 01:12:09;;;;;;;10.10;5.32;;;;;;;;;;4987499;28;20060;-59
2021/09/20 01:14:35;;;;;;;8.50;4.65;;;;;;;;;;4990324;28;20026;-59
2021/09/20 01:17:00;;;;;;;7.75;5.00;;;;;;;;;;4989123;28;20064;-59
2021/09/20 01:19:26;;;;;;;7.68;5.00;;;;;;;;;;4978826;28;20039;-59
2021/09/20 01:21:52;;;;;;;7.45;5.07;;;;;;;;;;4981656;28;20033;-59
2021/09/20 01:24:17;;;;;;;8.13;5.00;;;;;;;;;;4986684;28;20019;-59
2021/09/20 01:26:43;;;;;;;11.85;6.25;;;;;;;;;;4990893;28;20030;-59
2021/09/20 01:29:08;;;;;;;8.35;5.18;;;;;;;;;;5046648;28;20040;-59
2021/09/20 01:31:34;;;;;;;11.32;5.90;;;;;;;;;;4989042;28;20042;-59
2021/09/20 01:33:59;;;;;;;8.32;5.28;;;;;;;;;;4985652;28;20039;-59
2021/09/20 01:36:25;;;;;;;10.38;6.30;;;;;;;;;;5003517;28;20126;-59
2021/09/20 01:38:50;;;;;;;8.88;5.80;;;;;;;;;;4974960;28;20080;-59
2021/09/20 01:41:16;;;;;;;9.93;6.57;;;;;;;;;;5047082;28;20126;-59
2021/09/20 01:43:41;;;;;;;12.38;6.88;;;;;;;;;;4992883;28;20037;-59
2021/09/20 01:46:07;;;;;;;9.13;6.05;;;;;;;;;;4988196;28;20030;-59
2021/09/20 01:48:32;;;;;;;11.38;6.72;;;;;;;;;;4981051;28;20037;-59
2021/09/20 01:50:58;;;;;;;9.90;6.40;;;;;;;;;;4990230;28;20118;-59
2021/09/20 01:53:23;;;;;;;12.02;6.43;;;;;;;;;;4982578;28;20030;-59
2021/09/20 01:55:49;;;;;;;13.68;7.18;;;;;;;;;;4991267;28;20109;-59
2021/09/20 01:58:14;;;;;;;12.75;7.53;;;;;;;;;;4989692;28;20376;-59
2021/09/20 02:00:43;;;;;;;9.77;6.38;;;;;;;;;;4996001;28;20090;-59
2021/09/20 02:03:10;;;;;;;13.00;8.00;;;;;;;;;;4983659;28;20050;-59
2021/09/20 02:05:35;;;;;;;15.15;8.82;;;;;;;;;;5044988;28;20524;-59
2021/09/20 02:08:01;;;;;;;15.00;8.40;;;;;;;;;;4980956;28;20121;-57
2021/09/20 02:10:26;;;;;;;14.85;9.55;;;;;;;;;;5004128;28;20036;-57
2021/09/20 02:12:52;;;;;;;16.48;9.63;;;;;;;;;;4983503;28;20083;-57
2021/09/20 02:15:17;;;;;;;16.63;9.63;;;;;;;;;;4986215;28;20055;-57
2021/09/20 02:17:43;;;;;;;15.52;9.20;;;;;;;;;;4994742;28;20123;-59
2021/09/20 02:20:09;;;;;;;15.85;9.68;;;;;;;;;;4987636;28;20044;-57
2021/09/20 02:22:35;;;;;;;19.15;10.02;;;;;;;;;;5044394;28;20465;-58
2021/09/20 02:25:03;;;;;;;19.75;10.23;;;;;;;;;;5007790;28;20122;-58
2021/09/20 02:27:28;;;;;;;16.67;10.20;;;;;;;;;;5000484;28;20034;-57
2021/09/20 02:29:53;;;;;;;17.42;9.50;;;;;;;;;;4995154;28;20075;-59
2021/09/20 02:32:19;;;;;;;14.77;9.43;;;;;;;;;;5003955;28;20551;-59
2021/09/20 02:34:44;;;;;;;17.38;9.50;;;;;;;;;;4990663;28;20024;-57
2021/09/20 02:37:10;;;;;;;16.65;9.25;;;;;;;;;;4996270;28;20028;-59
2021/09/20 02:39:35;;;;;;;14.73;8.55;;;;;;;;;;5049007;28;20062;-59
2021/09/20 02:42:00;;;;;;;16.20;9.32;;;;;;;;;;5001038;28;20024;-59
2021/09/20 02:44:26;;;;;;;14.27;8.98;;;;;;;;;;4983269;28;20140;-59
2021/09/20 02:46:51;;;;;;;15.27;9.27;;;;;;;;;;4992894;28;20481;-58
2021/09/20 02:49:17;;;;;;;16.58;9.20;;;;;;;;;;5045967;28;20067;-58
2021/09/20 02:51:42;;;;;;;15.27;9.30;;;;;;;;;;4982025;28;20034;-59
2021/09/20 02:54:08;;;;;;;14.32;8.85;;;;;;;;;;4984402;28;20063;-58
2021/09/20 02:56:33;;;;;;;15.45;9.40;;;;;;;;;;4992016;28;20027;-59
2021/09/20 02:58:58;;;;;;;18.98;9.88;;;;;;;;;;5006033;28;20020;-59
2021/09/20 03:01:24;;;;;;;15.80;9.50;;;;;;;;;;4992669;28;20035;-58
2021/09/20 03:03:50;;;;;;;17.48;9.98;;;;;;;;;;5049295;28;20040;-59
2021/09/20 03:06:15;;;;;;;18.30;9.93;;;;;;;;;;4993404;28;20053;-58
2021/09/20 03:08:41;;;;;;;17.02;9.45;;;;;;;;;;4982641;28;20078;-58
2021/09/20 03:11:06;;;;;;;16.85;10.05;;;;;;;;;;4989271;28;20040;-59
2021/09/20 03:13:32;;;;;;;17.63;10.10;;;;;;;;;;4983673;28;20035;-59
2021/09/20 03:15:57;;;;;;;18.50;10.85;;;;;;;;;;4987031;28;20038;-58
2021/09/20 03:18:22;;;;;;;17.55;10.05;;;;;;;;;;4983636;28;20218;-58
2021/09/20 03:20:48;;;;;;;15.68;10.00;;;;;;;;;;5014010;28;20504;-58
2021/09/20 03:23:13;;;;;;;18.75;10.65;;;;;;;;;;4989208;28;20428;-58
2021/09/20 03:25:39;;;;;;;17.13;10.55;;;;;;;;;;4984122;28;20030;-58
2021/09/20 03:28:04;;;;;;;17.08;10.50;;;;;;;;;;4984555;28;20055;-58
2021/09/20 03:30:30;;;;;;;18.35;10.63;;;;;;;;;;4981722;28;20030;-59
2021/09/20 03:32:55;;;;;;;18.83;9.50;;;;;;;;;;4983381;28;20304;-58
2021/09/20 03:35:21;;;;;;;14.10;8.85;;;;;;;;;;4985679;28;20526;-59
2021/09/20 03:37:47;;;;;;;16.00;9.65;;;;;;;;;;4988413;28;20492;-58
2021/09/20 03:40:15;;;;;;;14.95;9.10;;;;;;;;;;5041460;28;20103;-59
2021/09/20 03:42:41;;;;;;;15.65;9.55;;;;;;;;;;5003248;28;20131;-58
2021/09/20 03:45:08;;;;;;;15.93;9.57;;;;;;;;;;4977259;28;20400;-58
2021/09/20 03:47:34;;;;;;;19.92;10.20;;;;;;;;;;4980192;28;20030;-59
2021/09/20 03:49:59;;;;;;;15.57;9.77;;;;;;;;;;4988833;28;20478;-58
2021/09/20 03:52:25;;;;;;;17.27;10.20;;;;;;;;;;4994754;28;20042;-58
2021/09/20 03:54:50;;;;;;;17.17;9.45;;;;;;;;;;4989030;28;20033;-59
2021/09/20 03:57:16;;;;;;;15.73;9.80;;;;;;;;;;4981718;28;20262;-59
2021/09/20 03:59:41;;;;;;;18.85;10.82;;;;;;;;;;4981557;28;20377;-59
2021/09/20 04:02:06;;;;;;;18.50;10.48;;;;;;;;;;5048896;28;20088;-58
2021/09/20 04:04:32;;;;;;;18.60;10.32;;;;;;;;;;5045489;28;20046;-58
2021/09/20 04:06:59;;;;;;;15.90;10.18;;;;;;;;;;4986253;28;20042;-59
2021/09/20 04:09:24;;;;;;;16.00;9.70;;;;;;;;;;4984181;28;20023;-59
2021/09/20 04:11:50;;;;;;;18.00;10.95;;;;;;;;;;4983656;28;20109;-58
2021/09/20 04:14:15;;;;;;;17.42;10.40;;;;;;;;;;4994946;28;20028;-59
2021/09/20 04:16:40;;;;;;;19.30;10.85;;;;;;;;;;4988084;28;20080;-58
2021/09/20 04:19:06;;;;;;;19.13;11.00;;;;;;;;;;4979337;28;20058;-58
2021/09/20 04:21:31;;;;;;;18.95;10.50;;;;;;;;;;4992967;28;20058;-59
2021/09/20 04:23:57;;;;;;;19.95;11.25;;;;;;;;;;5047206;28;20385;-58
2021/09/20 04:26:22;;;;;;;23.92;12.95;;;;;;;;;;4986250;28;20037;-58
2021/09/20 04:28:48;;;;;;;25.17;12.63;;;;;;;;;;4992658;28;20018;-58
2021/09/20 04:31:13;;;;;;;19.27;11.02;;;;;;;;;;5045131;28;20037;-58
2021/09/20 04:33:38;;;;;;;24.42;11.88;;;;;;;;;;4991741;28;20101;-58
2021/09/20 04:36:04;;;;;;;21.42;10.82;;;;;;;;;;5049109;28;20026;-58
2021/09/20 04:38:29;;;;;;;23.65;12.60;;;;;;;;;;4989706;28;20434;-58
2021/09/20 04:40:55;;;;;;;34.15;17.40;;;;;;;;;;5039823;28;20030;-58
2021/09/20 04:43:20;;;;;;;26.35;15.38;;;;;;;;;;4986640;28;20052;-58
2021/09/20 04:45:46;;;;;;;24.33;13.50;;;;;;;;;;4988605;28;20069;-58
2021/09/20 04:48:12;;;;;;;23.30;13.18;;;;;;;;;;4984555;28;20621;-58
2021/09/20 04:50:43;;;;;;;30.63;14.65;;;;;;;;;;4982876;28;20053;-58
2021/09/20 04:53:09;;;;;;;29.35;15.18;;;;;;;;;;4993912;28;20038;-58
2021/09/20 04:55:35;;;;;;;27.73;13.02;;;;;;;;;;5004142;28;20473;-58
2021/09/20 04:58:10;;;;;;;24.13;13.57;;;;;;;;;;5000032;28;20038;-59
2021/09/20 05:00:36;;;;;;;23.70;13.10;;;;;;;;;;5051447;28;20023;-59
2021/09/20 05:03:02;;;;;;;21.55;12.20;;;;;;;;;;4995634;28;20030;-59
2021/09/20 05:05:28;;;;;;;22.00;12.95;;;;;;;;;;4993349;28;20026;-60
2021/09/20 05:07:53;;;;;;;25.30;13.30;;;;;;;;;;4984158;28;20031;-59
2021/09/20 05:10:19;;;;;;;25.63;13.82;;;;;;;;;;4992961;28;20065;-59
2021/09/20 05:12:47;;;;;;;23.90;12.82;;;;;;;;;;5046428;28;20088;-59
2021/09/20 05:15:13;;;;;;;33.42;16.85;;;;;;;;;;4990283;28;20065;-59
2021/09/20 05:17:38;;;;;;;32.22;15.73;;;;;;;;;;4995222;28;20031;-59
2021/09/20 05:20:05;;;;;;;28.38;14.38;;;;;;;;;;4994482;28;20416;-58
2021/09/20 05:22:31;;;;;;;26.08;12.75;;;;;;;;;;4986608;28;20041;-58
2021/09/20 05:24:57;;;;;;;31.30;15.30;;;;;;;;;;5006280;28;20023;-59
2021/09/20 05:27:23;;;;;;;33.13;15.88;;;;;;;;;;4991933;28;20096;-58
2021/09/20 05:29:48;;;;;;;35.22;16.35;;;;;;;;;;4983076;28;20412;-58
2021/09/20 05:32:14;;;;;;;33.60;15.85;;;;;;;;;;4998967;28;20034;-59
2021/09/20 05:34:39;;;;;;;34.05;17.00;;;;;;;;;;5003889;28;20510;-59
2021/09/20 05:37:05;;;;;;;35.70;16.45;;;;;;;;;;4987248;28;20489;-59
2021/09/20 05:39:33;;;;;;;33.72;16.13;;;;;;;;;;4982121;28;20557;-61
2021/09/20 05:41:58;;;;;;;33.10;16.55;;;;;;;;;;4985212;28;20034;-58
2021/09/20 05:44:24;;;;;;;32.88;15.85;;;;;;;;;;4983100;28;20033;-59
2021/09/20 05:46:49;;;;;;;29.08;14.43;;;;;;;;;;5036294;28;20512;-58
2021/09/20 05:49:15;;;;;;;28.55;14.27;;;;;;;;;;4978696;28;20495;-58
2021/09/20 05:51:40;;;;;;;32.35;15.18;;;;;;;;;;5037939;28;20029;-58
2021/09/20 05:54:05;;;;;;;27.65;13.95;;;;;;;;;;4987536;28;20034;-57
2021/09/20 05:56:33;;;;;;;36.42;15.13;;;;;;;;;;4982003;28;20035;-59
2021/09/20 05:58:58;;;;;;;29.55;14.52;;;;;;;;;;4988257;28;20093;-58
2021/09/20 06:01:24;;;;;;;31.45;15.27;;;;;;;;;;5052449;28;20061;-59
2021/09/20 06:03:49;;;;;;;26.45;14.05;;;;;;;;;;4961949;28;20162;-59
2021/09/20 06:06:14;;;;;;;30.88;14.80;;;;;;;;;;5019966;28;20034;-59
2021/09/20 06:08:40;;;;;;;30.20;14.88;;;;;;;;;;4959923;28;20566;-58
2021/09/20 06:11:05;;;;;;;26.80;13.40;;;;;;;;;;4957332;28;20104;-59
2021/09/20 06:13:31;;;;;;;27.50;14.35;;;;;;;;;;4960520;28;20108;-59
2021/09/20 06:15:56;;;;;;;29.35;15.05;;;;;;;;;;4984392;28;20030;-58
2021/09/20 06:18:22;;;;;;;24.85;13.00;;;;;;;;;;4981897;28;20464;-58
2021/09/20 06:20:47;;;;;;;30.15;14.10;;;;;;;;;;5042693;28;20345;-58
2021/09/20 06:23:12;;;;;;;26.83;14.52;;;;;;;;;;5011133;28;20113;-59
2021/09/20 06:25:39;;;;;;;25.67;13.10;;;;;;;;;;4977162;28;20034;-59
2021/09/20 06:28:04;;;;;;;25.52;13.27;;;;;;;;;;4985569;28;20041;-58
2021/09/20 06:30:30;;;;;;;31.13;13.63;;;;;;;;;;4996279;28;20314;-58
2021/09/20 06:32:56;;;;;;;26.70;13.85;;;;;;;;;;4980894;28;20034;-58
2021/09/20 06:35:21;;;;;;;25.42;14.18;;;;;;;;;;4986051;28;20053;-59
2021/09/20 06:37:47;;;;;;;27.80;13.45;;;;;;;;;;5042215;28;20022;-59
2021/09/20 06:40:13;;;;;;;29.08;14.50;;;;;;;;;;4973888;28;20068;-59
2021/09/20 06:42:39;;;;;;;26.95;14.13;;;;;;;;;;5046125;28;20046;-59
2021/09/20 06:45:07;;;;;;;25.60;13.73;;;;;;;;;;4978116;28;20033;-59
2021/09/20 06:47:32;;;;;;;30.27;15.02;;;;;;;;;;4988863;28;20038;-61
2021/09/20 06:49:58;;;;;;;26.00;14.55;;;;;;;;;;4983203;28;20023;-60
2021/09/20 06:52:23;;;;;;;26.45;13.68;;;;;;;;;;4979773;28;20030;-59
2021/09/20 06:54:49;;;;;;;27.00;13.68;;;;;;;;;;5003452;28;20137;-59
2021/09/20 06:57:14;;;;;;;26.02;14.95;;;;;;;;;;4998541;28;20389;-59
2021/09/20 06:59:40;;;;;;;24.73;13.85;;;;;;;;;;4952408;28;20558;-60
2021/09/20 07:02:05;;;;;;;27.58;14.27;;;;;;;;;;4947743;28;20030;-59
2021/09/20 07:04:32;;;;;;;28.45;14.15;;;;;;;;;;4961585;28;20308;-60
2021/09/20 07:06:57;;;;;;;23.55;12.35;;;;;;;;;;4961864;28;20145;-59
2021/09/20 07:09:23;;;;;;;23.50;13.43;;;;;;;;;;5032839;28;20525;-59
2021/09/20 07:11:49;;;;;;;25.00;12.68;;;;;;;;;;5041329;28;20041;-59
2021/09/20 07:14:14;;;;;;;25.13;12.52;;;;;;;;;;4982533;28;20028;-59
2021/09/20 07:16:41;;;;;;;25.67;12.63;;;;;;;;;;4987815;28;20469;-59
2021/09/20 07:19:06;;;;;;;21.40;12.25;;;;;;;;;;4994601;28;20054;-59
2021/09/20 07:21:32;;;;;;;22.13;12.38;;;;;;;;;;4979081;28;20062;-59
2021/09/20 07:23:58;;;;;;;26.92;12.77;;;;;;;;;;4985574;28;20480;-59
2021/09/20 07:26:26;;;;;;;21.15;11.73;;;;;;;;;;5037881;28;20031;-59
2021/09/20 07:28:53;;;;;;;25.92;11.50;;;;;;;;;;4980900;28;20076;-59
2021/09/20 07:31:19;;;;;;;23.52;12.32;;;;;;;;;;5050804;28;20030;-59
2021/09/20 07:33:45;;;;;;;21.90;11.63;;;;;;;;;;4983616;28;20069;-59
2021/09/20 07:36:11;;;;;;;25.17;13.00;;;;;;;;;;4988570;28;20057;-59
2021/09/20 07:38:37;;;;;;;22.17;12.10;;;;;;;;;;4980641;28;20216;-59
2021/09/20 07:41:04;;;;;;;24.13;13.00;;;;;;;;;;5004759;28;20308;-59
2021/09/20 07:43:30;;;;;;;22.55;11.65;;;;;;;;;;4975816;28;20469;-59
2021/09/20 07:45:55;;;;;;;18.73;10.07;;;;;;;;;;4983187;28;20037;-59
2021/09/20 07:48:21;;;;;;;12.95;7.75;;;;;;;;;;4976710;28;20027;-59
2021/09/20 07:50:46;;;;;;;15.23;8.45;;;;;;;;;;4999285;28;20357;-59
2021/09/20 07:53:12;;;;;;;18.65;8.98;;;;;;;;;;5039775;28;20073;-59
2021/09/20 07:55:37;;;;;;;22.10;8.95;;;;;;;;;;4983040;28;20073;-59
2021/09/20 07:58:04;;;;;;;17.73;9.15;;;;;;;;;;5011714;28;20033;-59
2021/09/20 08:00:31;;;;;;;18.80;9.77;;;;;;;;;;4992131;28;20603;-59
2021/09/20 08:02:56;;;;;;;21.58;9.82;;;;;;;;;;4985470;28;20511;-59
2021/09/20 08:05:22;;;;;;;19.40;9.07;;;;;;;;;;4987142;28;20128;-59
2021/09/20 08:07:48;;;;;;;18.58;9.55;;;;;;;;;;4993890;28;20039;-59
2021/09/20 08:10:13;;;;;;;22.52;8.02;;;;;;;;;;4986329;28;20026;-59
2021/09/20 08:12:39;;;;;;;13.20;7.75;;;;;;;;;;4983326;28;20113;-59
2021/09/20 08:15:05;;;;;;;16.42;8.32;;;;;;;;;;5042105;28;20033;-59
2021/09/20 08:17:33;;;;;;;15.55;8.43;;;;;;;;;;4981882;28;20038;-60
2021/09/20 08:20:00;;;;;;;17.60;9.48;;;;;;;;;;4997260;28;20456;-59
2021/09/20 08:22:25;;;;;;;16.55;9.13;;;;;;;;;;4989413;28;20119;-59
2021/09/20 08:24:51;;;;;;;18.65;9.10;;;;;;;;;;4992296;28;20095;-59
2021/09/20 08:27:17;;;;;;;16.33;9.25;;;;;;;;;;4986615;28;20435;-59
2021/09/20 08:29:43;;;;;;;21.63;9.30;;;;;;;;;;5001947;28;20585;-58
2021/09/20 08:32:08;;;;;;;16.27;8.98;;;;;;;;;;5050524;28;20034;-59
2021/09/20 08:34:37;;;;;;;17.05;9.68;;;;;;;;;;4985608;28;20037;-60
2021/09/20 08:37:04;;;;;;;20.35;10.77;;;;;;;;;;4995207;28;20496;-59
2021/09/20 08:39:30;;;;;;;17.88;9.60;;;;;;;;;;5011912;28;20117;-60
2021/09/20 08:41:56;;;;;;;16.95;10.63;;;;;;;;;;5059795;28;20020;-60
2021/09/20 08:44:22;;;;;;;20.42;11.48;;;;;;;;;;4984909;28;20030;-59
2021/09/20 08:46:50;;;;;;;21.13;11.70;;;;;;;;;;5004023;28;20061;-60
2021/09/20 08:49:19;;;;;;;20.17;11.88;;;;;;;;;;5026290;28;20105;-60
2021/09/20 08:51:44;;;;;;;18.88;11.13;;;;;;;;;;4989284;28;20034;-59
2021/09/20 08:54:10;;;;;;;21.77;11.88;;;;;;;;;;4989564;28;20041;-60
2021/09/20 08:56:36;;;;;;;19.85;11.82;;;;;;;;;;4982201;28;20091;-59
2021/09/20 08:59:01;;;;;;;17.73;10.98;;;;;;;;;;5045997;28;20030;-59
2021/09/20 09:01:27;;;;;;;22.67;11.52;;;;;;;;;;4991471;28;20038;-60
2021/09/20 09:04:27;;;;;;;22.40;11.00;;;;;;;;;;4995863;28;20050;-60
2021/09/20 09:06:54;;;;;;;17.30;10.27;;;;;;;;;;5002983;28;20351;-60
2021/09/20 09:09:37;;;;;;;18.20;10.73;;;;;;;;;;5005383;28;20054;-59
2021/09/20 09:12:19;;;;;;;15.98;9.88;;;;;;;;;;4991160;28;20042;-60
2021/09/20 09:14:56;;;;;;;19.80;11.23;;;;;;;;;;4989106;28;20473;-60
2021/09/20 09:17:40;;;;;;;18.73;10.85;;;;;;;;;;4980003;28;20057;-60
2021/09/20 09:20:08;;;;;;;18.02;10.55;;;;;;;;;;4991000;28;20022;-60
2021/09/20 09:22:48;;;;;;;17.23;9.73;;;;;;;;;;4985893;28;20030;-60
2021/09/20 09:25:37;;;;;;;15.88;9.75;;;;;;;;;;5014492;28;20028;-59
2021/09/20 09:28:19;;;;;;;17.33;9.70;;;;;;;;;;4997867;28;20092;-60
2021/09/20 09:30:47;;;;;;;16.58;9.73;;;;;;;;;;5057119;28;20052;-61
2021/09/20 09:33:19;;;;;;;17.80;9.75;;;;;;;;;;4991762;28;20045;-59
2021/09/20 09:35:47;;;;;;;12.73;8.20;;;;;;;;;;4986835;28;20528;-58
2021/09/20 09:38:12;;;;;;;15.80;8.57;;;;;;;;;;4986955;28;20030;-59
2021/09/20 09:40:54;;;;;;;16.05;9.73;;;;;;;;;;5013203;28;20436;-60
2021/09/20 09:43:40;;;;;;;16.58;9.00;;;;;;;;;;4983705;28;20034;-59
2021/09/20 09:46:23;;;;;;;17.60;10.00;;;;;;;;;;4989299;28;20042;-60
2021/09/20 09:48:50;;;;;;;16.13;9.65;;;;;;;;;;5005741;28;20487;-60
2021/09/20 09:51:17;;;;;;;15.55;9.52;;;;;;;;;;4983041;28;20335;-60
2021/09/20 09:53:46;;;;;;;14.80;9.30;;;;;;;;;;4982345;28;20073;-60
2021/09/20 09:56:14;;;;;;;15.65;9.30;;;;;;;;;;5047236;28;20037;-60
2021/09/20 09:59:00;;;;;;;18.80;9.15;;;;;;;;;;4994821;28;20306;-60
2021/09/20 10:01:38;;;;;;;15.30;9.63;;;;;;;;;;4983749;28;20062;-59
2021/09/20 10:04:20;;;;;;;14.55;9.07;;;;;;;;;;5038779;28;20469;-60
2021/09/20 10:06:48;;;;;;;11.82;7.95;;;;;;;;;;4992349;28;20095;-60
2021/09/20 10:09:16;;;;;;;14.32;9.13;;;;;;;;;;5006551;28;20084;-60
2021/09/20 10:11:45;;;;;;;15.52;9.90;;;;;;;;;;5051521;28;20319;-60
2021/09/20 10:14:14;;;;;;;14.25;9.57;;;;;;;;;;4990289;28;20120;-59
2021/09/20 10:16:40;;;;;;;15.05;9.73;;;;;;;;;;4999224;28;20030;-62
2021/09/20 10:19:06;;;;;;;13.73;8.95;;;;;;;;;;4980737;28;20025;-59
2021/09/20 10:21:32;;;;;;;13.10;8.27;;;;;;;;;;4989878;28;20376;-61
2021/09/20 10:23:59;;;;;;;12.13;8.32;;;;;;;;;;4984590;28;20035;-60
2021/09/20 10:26:26;;;;;;;15.02;8.57;;;;;;;;;;4998992;28;20025;-60
2021/09/20 10:28:55;;;;;;;15.88;9.50;;;;;;;;;;4986892;28;20129;-60
2021/09/20 10:31:22;;;;;;;14.52;8.77;;;;;;;;;;5054018;28;20325;-59
2021/09/20 10:33:47;;;;;;;17.58;10.77;;;;;;;;;;4992010;28;20034;-60
2021/09/20 10:36:13;;;;;;;14.23;9.20;;;;;;;;;;4996255;28;20031;-60
2021/09/20 10:38:50;;;;;;;16.30;9.52;;;;;;;;;;4995959;28;20092;-59
2021/09/20 10:41:22;;;;;;;15.88;10.35;;;;;;;;;;5003227;28;20545;-59
2021/09/20 10:43:59;;;;;;;19.17;10.25;;;;;;;;;;4976742;28;20116;-59
2021/09/20 10:46:28;;;;;;;17.80;9.65;;;;;;;;;;4977148;28;20496;-60
2021/09/20 10:48:55;;;;;;;13.93;9.50;;;;;;;;;;4988771;28;20086;-59
2021/09/20 10:51:24;;;;;;;16.08;9.50;;;;;;;;;;4997230;28;20095;-59
2021/09/20 10:54:14;;;;;;;14.93;10.05;;;;;;;;;;4997278;28;20716;-59
2021/09/20 10:56:41;;;;;;;16.75;10.27;;;;;;;;;;5052889;28;20076;-60
2021/09/20 10:59:08;;;;;;;20.48;11.27;;;;;;;;;;5031052;28;20026;-60
2021/09/20 11:01:35;;;;;;;21.45;11.00;;;;;;;;;;4984057;28;20030;-60
2021/09/20 11:04:03;;;;;;;17.75;10.45;;;;;;;;;;4984891;28;20548;-59
2021/09/20 11:06:33;;;;;;;17.27;9.63;;;;;;;;;;4996624;28;20045;-59
2021/09/20 11:08:58;;;;;;;;;;;;;;;;;;4986346;28;20041;-59
2021/09/20 11:11:42;;;;;;;25.98;15.15;;;;;;;;;;4999116;28;19912;-58
2021/09/20 11:14:10;;;;;;;31.20;14.98;;;;;;;;;;4983952;28;20053;-59
2021/09/20 11:16:54;;;;;;;16.02;10.18;;;;;;;;;;5047364;28;20022;-59
2021/09/20 11:19:28;;;;;;;15.00;9.15;;;;;;;;;;5000310;28;20039;-59
2021/09/20 11:22:10;;;;;;;21.30;10.07;;;;;;;;;;4987892;28;20524;-59
2021/09/20 11:24:51;;;;;;;19.92;10.25;;;;;;;;;;4986976;28;20026;-59
2021/09/20 11:27:38;;;;;;;14.25;8.73;;;;;;;;;;4983675;28;20577;-59
2021/09/20 11:30:13;;;;;;;18.45;10.23;;;;;;;;;;4994115;28;20431;-60
2021/09/20 11:32:45;;;;;;;15.57;9.52;;;;;;;;;;4987895;28;20022;-60
2021/09/20 11:35:12;;;;;;;16.98;9.43;;;;;;;;;;4976598;28;20114;-60
2021/09/20 11:37:38;;;;;;;14.43;9.45;;;;;;;;;;5005403;28;20031;-60
2021/09/20 11:40:07;;;;;;;15.50;9.88;;;;;;;;;;5000358;28;20022;-60
2021/09/20 11:42:36;;;;;;;15.80;9.85;;;;;;;;;;4988724;28;20122;-60
2021/09/20 11:45:05;;;;;;;12.65;8.57;;;;;;;;;;5011034;28;20540;-60
2021/09/20 11:47:35;;;;;;;16.77;9.02;;;;;;;;;;5017485;28;20058;-60
2021/09/20 11:50:06;;;;;;;17.70;9.90;;;;;;;;;;4989189;28;20030;-60
2021/09/20 11:52:35;;;;;;;14.98;8.77;;;;;;;;;;5000822;28;20835;-59
2021/09/20 11:55:01;;;;;;;19.08;9.45;;;;;;;;;;5001955;28;20042;-59
2021/09/20 11:57:31;;;;;;;14.50;8.20;;;;;;;;;;5046239;28;20512;-59
2021/09/20 12:00:04;;;;;;;15.70;8.73;;;;;;;;;;4989151;28;20377;-59
2021/09/20 12:02:39;;;;;;;13.98;8.77;;;;;;;;;;4984299;28;20121;-60
2021/09/20 12:05:07;;;;;;;15.38;9.07;;;;;;;;;;4982456;28;20117;-59
2021/09/20 12:07:44;;;;;;;13.60;9.07;;;;;;;;;;4993242;28;20490;-59
2021/09/20 12:10:10;;;;;;;13.55;8.82;;;;;;;;;;4991360;28;20034;-59
2021/09/20 12:12:38;;;;;;;14.00;8.57;;;;;;;;;;4978788;28;20038;-59
2021/09/20 12:15:12;;;;;;;13.13;8.13;;;;;;;;;;4974564;28;20030;-60
2021/09/20 12:17:52;;;;;;;14.18;9.13;;;;;;;;;;4981830;28;20435;-59
2021/09/20 12:20:34;;;;;;;17.13;8.63;;;;;;;;;;5042568;28;20046;-59
2021/09/20 12:23:03;;;;;;;13.93;8.30;;;;;;;;;;4986054;28;20037;-58
2021/09/20 12:25:41;;;;;;;11.07;7.40;;;;;;;;;;4986298;28;20396;-59
2021/09/20 12:28:15;;;;;;;13.82;8.90;;;;;;;;;;4982859;28;20030;-59
2021/09/20 12:30:55;;;;;;;12.23;8.05;;;;;;;;;;5004161;28;20031;-59
2021/09/20 12:33:20;;;;;;;;;;;;;;;;;;5009659;28;20042;-59
2021/09/20 12:35:46;;;;;;;12.18;7.68;;;;;;;;;;4993477;28;19914;-59
2021/09/20 12:38:30;;;;;;;14.93;7.78;;;;;;;;;;5000982;28;20485;-59
2021/09/20 12:40:59;;;;;;;14.40;8.65;;;;;;;;;;4979958;28;20049;-59
2021/09/20 12:43:32;;;;;;;15.07;8.00;;;;;;;;;;5000111;28;20032;-61
2021/09/20 12:46:09;;;;;;;14.18;8.50;;;;;;;;;;4983724;28;20403;-59
2021/09/20 12:48:37;;;;;;;15.90;9.10;;;;;;;;;;5040456;28;20492;-59
2021/09/20 12:51:06;;;;;;;24.00;13.57;;;;;;;;;;4997276;28;20078;-59
2021/09/20 12:53:41;;;;;;;23.98;12.82;;;;;;;;;;4998911;28;20045;-59
2021/09/20 12:56:08;;;;;;;20.17;11.73;;;;;;;;;;5051588;28;20042;-58
2021/09/20 12:58:38;;;;;;;15.15;9.75;;;;;;;;;;4991959;28;20027;-59
2021/09/20 13:01:07;;;;;;;26.50;14.10;;;;;;;;;;4995467;28;20033;-59
2021/09/20 13:03:39;;;;;;;15.77;10.75;;;;;;;;;;4991414;28;20027;-59
2021/09/20 13:06:11;;;;;;;18.52;8.73;;;;;;;;;;4985591;28;20518;-59
2021/09/20 13:08:55;;;;;;;15.48;9.23;;;;;;;;;;5018268;28;20027;-59
2021/09/20 13:11:21;;;;;;;13.27;7.75;;;;;;;;;;4995414;28;20034;-59
2021/09/20 13:13:47;;;;;;;13.05;7.60;;;;;;;;;;4995881;28;20016;-59
2021/09/20 13:16:13;;;;;;;11.93;7.95;;;;;;;;;;5005567;28;20048;-59
2021/09/20 13:18:41;;;;;;;15.77;9.60;;;;;;;;;;5001455;28;20491;-59
2021/09/20 13:21:26;;;;;;;19.02;9.73;;;;;;;;;;4984764;28;20030;-59
2021/09/20 13:23:53;;;;;;;14.77;9.15;;;;;;;;;;4990169;28;20118;-59
2021/09/20 13:26:40;;;;;;;15.80;9.38;;;;;;;;;;5027696;28;20952;-59
2021/09/20 13:29:06;;;;;;;13.82;9.15;;;;;;;;;;5005483;28;20038;-59
2021/09/20 13:31:34;;;;;;;13.52;8.10;;;;;;;;;;5043102;28;20649;-60
2021/09/20 13:34:01;;;;;;;15.82;9.30;;;;;;;;;;4978258;28;20035;-59
2021/09/20 13:36:28;;;;;;;16.15;9.57;;;;;;;;;;5001525;28;20060;-59
2021/09/20 13:38:53;;;;;;;16.45;10.00;;;;;;;;;;4983562;28;20022;-60
2021/09/20 13:41:19;;;;;;;12.43;8.32;;;;;;;;;;4986641;28;20034;-59
2021/09/20 13:43:47;;;;;;;14.35;9.38;;;;;;;;;;4995414;28;20030;-59
2021/09/20 13:46:19;;;;;;;23.65;13.18;;;;;;;;;;4997030;28;20036;-59
2021/09/20 13:48:45;;;;;;;31.77;15.73;;;;;;;;;;5046491;28;20420;-59
2021/09/20 13:51:11;;;;;;;20.42;11.43;;;;;;;;;;5002428;28;20027;-59
2021/09/20 13:53:36;;;;;;;15.52;9.48;;;;;;;;;;5000506;28;20227;-59
2021/09/20 13:56:03;;;;;;;14.13;8.73;;;;;;;;;;4982075;28;20042;-59
2021/09/20 13:58:28;;;;;;;14.75;8.73;;;;;;;;;;4984139;28;20536;-60
2021/09/20 14:00:54;;;;;;;15.00;8.65;;;;;;;;;;5018292;28;20026;-60
2021/09/20 14:03:21;;;;;;;15.40;9.85;;;;;;;;;;4994304;28;20118;-59
2021/09/20 14:05:50;;;;;;;14.95;9.23;;;;;;;;;;4988296;28;20027;-59
2021/09/20 14:08:16;;;;;;;15.25;9.38;;;;;;;;;;5008908;28;20020;-60
2021/09/20 14:10:43;;;;;;;15.50;9.02;;;;;;;;;;5050508;28;20040;-60
2021/09/20 14:13:09;;;;;;;15.52;8.95;;;;;;;;;;4981682;28;20026;-60
2021/09/20 14:15:38;;;;;;;14.85;8.13;;;;;;;;;;5005561;28;20114;-60
2021/09/20 14:18:05;;;;;;;14.32;8.55;;;;;;;;;;5019892;28;20393;-60
2021/09/20 14:20:30;;;;;;;23.17;9.35;;;;;;;;;;4987487;28;20305;-60
2021/09/20 14:23:01;;;;;;;12.07;7.68;;;;;;;;;;4998297;28;20067;-59
2021/09/20 14:25:28;;;;;;;17.50;8.60;;;;;;;;;;5009185;28;20030;-58
2021/09/20 14:27:55;;;;;;;18.83;9.15;;;;;;;;;;4992146;28;20318;-58
2021/09/20 14:30:21;;;;;;;26.13;8.60;;;;;;;;;;4995475;28;20409;-57